Time;durP1;ratioP1;P1;durP2;ratioP2;P2;SDS_P1;SDS_P2;PMS_P1;PMS_P2;Temp;Humidity;BMP_temperature;BMP_pressure;BME280_temperature;BME280_humidity;BME280_pressure;Samples;Min_cycle;Max_cycle;Signal;HPM_P1;HPM_P2
2021/07/18 00:05:29;;;;;;;41.58;25.58;;;18.60;99.90;;;;;;20904769;28;20032;-78
2021/07/18 00:15:30;;;;;;;41.70;24.30;;;18.70;99.90;;;;;;20883605;28;20108;-77
2021/07/18 00:25:34;;;;;;;43.60;24.87;;;18.50;99.90;;;;;;20898201;28;20033;-78
2021/07/18 00:35:35;;;;;;;46.60;27.88;;;18.40;99.90;;;;;;20903136;28;20045;-78
2021/07/18 00:45:36;;;;;;;58.60;26.03;;;18.30;99.90;;;;;;20907521;28;20029;-77
2021/07/18 00:55:40;;;;;;;59.47;28.33;;;18.20;99.90;;;;;;20899641;28;20111;-78
2021/07/18 01:05:40;;;;;;;46.65;25.58;;;18.00;99.90;;;;;;20900397;28;20098;-78
2021/07/18 01:15:41;;;;;;;39.27;20.10;;;17.90;99.90;;;;;;20899202;28;20036;-78
2021/07/18 01:25:43;;;;;;;27.23;17.77;;;17.80;99.90;;;;;;20898364;28;20107;-78
2021/07/18 01:35:44;;;;;;;37.27;21.07;;;17.70;99.90;;;;;;20898590;28;20044;-77
2021/07/18 01:45:44;;;;;;;55.77;28.67;;;17.50;99.90;;;;;;20880419;28;20384;-78
2021/07/18 01:55:52;;;;;;;48.57;26.77;;;17.40;99.90;;;;;;20898831;28;20029;-78
2021/07/18 02:05:53;;;;;;;59.60;29.27;;;17.40;99.90;;;;;;20881326;28;20036;-78
2021/07/18 02:15:53;;;;;;;78.23;26.17;;;17.40;99.90;;;;;;20896869;28;20087;-78
2021/07/18 02:25:54;;;;;;;101.13;25.90;;;17.30;99.90;;;;;;20897350;28;20083;-78
2021/07/18 02:35:55;;;;;;;99.33;23.13;;;17.30;99.90;;;;;;20899174;28;20033;-78
2021/07/18 02:45:56;;;;;;;45.27;22.37;;;17.30;99.90;;;;;;20877588;28;20073;-78
2021/07/18 02:55:57;;;;;;;145.67;27.43;;;17.10;99.90;;;;;;20931997;28;20087;-78
2021/07/18 03:05:58;;;;;;;56.03;19.93;;;16.90;99.90;;;;;;20930875;28;20029;-79
2021/07/18 03:15:58;;;;;;;29.80;17.00;;;16.80;99.90;;;;;;20931473;28;20029;-79
2021/07/18 03:25:59;;;;;;;29.23;13.50;;;16.60;99.90;;;;;;20912632;28;20079;-78
2021/07/18 03:36:00;;;;;;;17.77;11.20;;;16.40;99.90;;;;;;20928613;28;20033;-79
2021/07/18 03:46:02;;;;;;;29.30;10.17;;;16.30;99.90;;;;;;20910305;28;20060;-78
2021/07/18 03:56:04;;;;;;;22.80;11.35;;;15.90;99.90;;;;;;20926128;28;20029;-77
2021/07/18 04:06:04;;;;;;;25.23;10.93;;;15.70;99.90;;;;;;20927143;28;20448;-78
2021/07/18 04:16:06;;;;;;;23.03;13.80;;;15.50;99.90;;;;;;20921992;28;20033;-77
2021/07/18 04:26:07;;;;;;;29.60;16.25;;;15.80;99.90;;;;;;20923824;28;20121;-78
2021/07/18 04:36:08;;;;;;;23.07;13.40;;;15.80;99.90;;;;;;20921060;28;20423;-78
2021/07/18 04:46:09;;;;;;;21.37;12.97;;;16.10;99.90;;;;;;20904089;28;20036;-78
2021/07/18 04:56:10;;;;;;;23.07;13.77;;;16.20;99.90;;;;;;20900437;28;20503;-78
2021/07/18 05:06:10;;;;;;;60.70;18.77;;;16.60;99.90;;;;;;20914467;28;20507;-78
2021/07/18 05:16:12;;;;;;;41.47;19.10;;;16.80;99.90;;;;;;20918349;28;20028;-78
2021/07/18 05:26:13;;;;;;;37.53;18.33;;;16.90;99.90;;;;;;20899580;28;20123;-78
2021/07/18 05:36:14;;;;;;;24.23;13.90;;;17.40;99.90;;;;;;20950212;22;20036;-77
2021/07/18 05:46:15;;;;;;;27.90;16.33;;;17.50;99.90;;;;;;21020289;28;20036;-77
2021/07/18 05:56:16;;;;;;;42.67;21.53;;;17.80;99.90;;;;;;21045125;28;20100;-78
2021/07/18 06:06:17;;;;;;;32.93;18.17;;;17.50;99.90;;;;;;21014155;28;20395;-77
2021/07/18 06:16:18;;;;;;;50.57;23.53;;;17.80;99.90;;;;;;21054365;28;20056;-78
2021/07/18 06:26:19;;;;;;;31.67;19.20;;;18.10;99.90;;;;;;21029679;28;20032;-78
2021/07/18 06:36:20;;;;;;;35.77;20.57;;;18.80;99.90;;;;;;21057050;28;20033;-77
2021/07/18 06:46:21;;;;;;;36.30;23.30;;;19.10;99.90;;;;;;21065345;28;20038;-79
2021/07/18 06:56:22;;;;;;;34.23;21.63;;;19.90;99.90;;;;;;21072322;28;20035;-80
2021/07/18 07:06:23;;;;;;;23.80;15.27;;;19.70;99.90;;;;;;21068901;28;20036;-80
2021/07/18 07:16:24;;;;;;;14.30;8.57;;;20.30;99.90;;;;;;21001057;28;20043;-80
2021/07/18 07:26:24;;;;;;;14.40;8.67;;;20.80;99.90;;;;;;20981833;28;20852;-79
2021/07/18 07:36:25;;;;;;;12.43;7.80;;;21.10;99.90;;;;;;20993717;28;20150;-80
2021/07/18 07:46:27;;;;;;;15.57;9.87;;;21.80;99.90;;;;;;20959931;28;20128;-78
2021/07/18 07:56:28;;;;;;;;;;;22.80;99.90;;;;;;20968872;28;20041;-78
2021/07/18 08:06:28;;;;;;;13.15;6.20;;;22.50;99.90;;;;;;20988794;28;19918;-79
2021/07/18 08:16:29;;;;;;;10.40;5.60;;;23.00;99.90;;;;;;20996704;28;20032;-82
2021/07/18 08:26:30;;;;;;;9.55;5.20;;;23.60;99.90;;;;;;20969140;28;20047;-79
2021/07/18 08:36:31;;;;;;;12.88;5.03;;;24.30;99.90;;;;;;21011310;28;20028;-80
2021/07/18 08:46:32;;;;;;;9.10;4.30;;;24.70;99.90;;;;;;21003669;28;20025;-79
2021/07/18 08:56:33;;;;;;;;;;;24.40;99.90;;;;;;20986209;28;20032;-80
2021/07/18 09:06:45;;;;;;;13.55;3.83;;;25.00;99.90;;;;;;20972940;28;19919;-79
2021/07/18 09:16:49;;;;;;;5.70;3.53;;;25.80;99.90;;;;;;21004169;28;20494;-79
2021/07/18 09:27:11;;;;;;;6.95;3.35;;;26.10;99.90;;;;;;20966849;28;20047;-79
2021/07/18 09:37:17;;;;;;;11.60;3.80;;;26.70;99.90;;;;;;20985730;28;20028;-79
2021/07/18 09:47:17;;;;;;;8.60;3.40;;;26.60;99.90;;;;;;21007947;28;20415;-81
2021/07/18 09:57:34;;;;;;;9.05;3.30;;;26.40;99.90;;;;;;21011108;28;20032;-79
2021/07/18 10:07:35;;;;;;;6.65;3.22;;;27.20;99.90;;;;;;20999688;28;20421;-79
2021/07/18 10:17:36;;;;;;;7.38;3.25;;;27.90;99.90;;;;;;20993903;28;20101;-79
2021/07/18 10:27:37;;;;;;;7.75;2.97;;;28.00;99.90;;;;;;21037343;28;20032;-80
2021/07/18 10:37:42;;;;;;;6.18;2.38;;;28.30;99.90;;;;;;21042956;28;20060;-80
2021/07/18 10:47:59;;;;;;;6.38;2.53;;;28.90;99.90;;;;;;21036304;28;20510;-80
2021/07/18 10:58:00;;;;;;;5.30;2.03;;;28.70;99.90;;;;;;21010576;28;20029;-79
2021/07/18 11:08:01;;;;;;;5.68;2.72;;;29.00;99.90;;;;;;20991635;28;20047;-79
2021/07/18 11:18:09;;;;;;;5.90;2.60;;;27.10;99.90;;;;;;21016459;28;20021;-79
2021/07/18 11:28:38;;;;;;;10.07;2.80;;;27.80;99.90;;;;;;20942191;28;20100;-80
2021/07/18 11:38:39;;;;;;;2.83;2.00;;;26.80;99.90;;;;;;20984459;22;20573;-80
2021/07/18 11:48:42;;;;;;;5.93;2.08;;;27.90;99.90;;;;;;21016892;28;20032;-79
2021/07/18 11:58:43;;;;;;;3.35;2.10;;;29.10;99.90;;;;;;21036028;28;20044;-78
2021/07/18 12:08:44;;;;;;;5.93;2.25;;;28.30;99.90;;;;;;21012689;28;20111;-78
2021/07/18 12:18:49;;;;;;;8.88;2.45;;;29.10;99.90;;;;;;21100126;28;20027;-78
2021/07/18 12:28:50;;;;;;;7.05;2.03;;;26.90;99.90;;;;;;21172602;28;20039;-79
2021/07/18 12:38:51;;;;;;;8.93;2.38;;;27.10;99.90;;;;;;21095296;28;20179;-79
2021/07/18 12:49:06;;;;;;;3.67;2.10;;;28.80;99.90;;;;;;21080031;28;20042;-79
2021/07/18 12:59:07;;;;;;;5.57;1.95;;;29.90;99.90;;;;;;21073979;28;20039;-80
2021/07/18 13:09:29;;;;;;;5.05;2.25;;;27.70;99.90;;;;;;21085786;28;20683;-79
2021/07/18 13:19:30;;;;;;;9.50;1.65;;;27.80;99.90;;;;;;21071058;28;20047;-80
2021/07/18 13:29:38;;;;;;;5.43;1.85;;;28.90;99.90;;;;;;21085964;28;20107;-80
2021/07/18 13:39:39;;;;;;;5.18;1.90;;;28.60;99.90;;;;;;21086425;28;20028;-80
2021/07/18 13:49:40;;;;;;;4.10;2.00;;;29.70;99.90;;;;;;21074200;28;20474;-79
2021/07/18 13:59:40;;;;;;;4.22;1.80;;;28.60;99.90;;;;;;21052606;28;20047;-79
2021/07/18 14:09:41;;;;;;;5.00;2.05;;;29.50;99.90;;;;;;21068900;28;20520;-77
2021/07/18 14:19:43;;;;;;;2.90;1.75;;;29.60;99.90;;;;;;21068433;28;20107;-79
2021/07/18 14:29:45;;;;;;;4.65;1.95;;;28.70;99.90;;;;;;21044306;28;20057;-78
2021/07/18 14:39:45;;;;;;;5.18;2.28;;;28.50;99.90;;;;;;21003016;28;20058;-78
2021/07/18 14:49:47;;;;;;;9.15;2.22;;;29.00;99.90;;;;;;20966949;28;20043;-77
2021/07/18 14:59:47;;;;;;;6.55;2.35;;;29.10;99.90;;;;;;21029565;28;20085;-78
2021/07/18 15:09:48;;;;;;;4.32;2.15;;;28.90;99.90;;;;;;21035650;28;20028;-78
2021/07/18 15:19:49;;;;;;;3.55;1.88;;;28.90;99.90;;;;;;21078538;28;20731;-77
2021/07/18 15:29:50;;;;;;;3.17;1.90;;;29.60;99.90;;;;;;21079268;28;20403;-77
2021/07/18 15:39:51;;;;;;;7.38;1.73;;;29.20;99.90;;;;;;21019490;28;20294;-78
2021/07/18 15:49:51;;;;;;;6.95;2.45;;;28.10;99.90;;;;;;21025928;28;20114;-78
2021/07/18 15:59:52;;;;;;;6.25;1.90;;;28.10;99.90;;;;;;21060182;28;20036;-78
2021/07/18 16:09:53;;;;;;;3.50;1.60;;;28.60;99.90;;;;;;21067661;28;20032;-78
2021/07/18 16:19:55;;;;;;;7.03;1.45;;;27.30;99.90;;;;;;21049993;28;20366;-79
2021/07/18 16:29:56;;;;;;;4.43;1.85;;;27.60;99.90;;;;;;21003190;28;20498;-78
2021/07/18 16:39:59;;;;;;;4.65;1.42;;;26.90;99.90;;;;;;21032068;28;20032;-78
2021/07/18 16:50:00;;;;;;;8.70;1.42;;;26.90;99.90;;;;;;20998458;28;20554;-78
2021/07/18 17:00:01;;;;;;;6.50;1.80;;;26.70;99.90;;;;;;21070779;28;20032;-76
2021/07/18 17:10:03;;;;;;;10.75;1.88;;;26.50;99.90;;;;;;21031112;28;20039;-77
2021/07/18 17:20:08;;;;;;;12.55;2.28;;;26.70;99.90;;;;;;21041859;28;20078;-77
2021/07/18 17:30:09;;;;;;;11.90;2.80;;;26.40;99.90;;;;;;21031182;28;20032;-78
2021/07/18 17:40:10;;;;;;;8.52;1.90;;;26.00;99.90;;;;;;21018395;23;20052;-78
2021/07/18 17:50:13;;;;;;;4.78;1.90;;;25.90;99.90;;;;;;20998436;28;20043;-79
2021/07/18 18:00:16;;;;;;;6.07;1.92;;;25.60;99.90;;;;;;21011880;28;20047;-79
2021/07/18 18:10:18;;;;;;;6.78;2.00;;;25.60;99.90;;;;;;21012987;28;20029;-79
2021/07/18 18:20:20;;;;;;;7.95;2.42;;;25.80;99.90;;;;;;21013795;28;20529;-79
2021/07/18 18:30:21;;;;;;;5.80;1.75;;;25.50;99.90;;;;;;21014627;28;20032;-79
2021/07/18 18:40:22;;;;;;;;;;;24.70;99.90;;;;;;21010771;28;20032;-80
2021/07/18 18:50:23;;;;;;;6.95;2.88;;;24.40;99.90;;;;;;21010673;28;20389;-79
2021/07/18 19:00:24;;;;;;;6.60;2.47;;;23.80;99.90;;;;;;21017977;28;20094;-79
2021/07/18 19:10:25;;;;;;;11.67;3.33;;;23.70;99.90;;;;;;21020776;28;20024;-79
2021/07/18 19:20:27;;;;;;;7.87;3.97;;;23.30;99.90;;;;;;21020450;28;20036;-80
2021/07/18 19:30:28;;;;;;;6.57;4.03;;;22.50;99.90;;;;;;21031490;28;20052;-77
2021/07/18 19:40:29;;;;;;;10.20;4.70;;;21.80;99.90;;;;;;21007284;28;20074;-80
2021/07/18 19:50:29;;;;;;;11.87;6.07;;;21.10;99.90;;;;;;21008452;28;20025;-80
2021/07/18 20:00:31;;;;;;;10.47;6.50;;;20.80;99.90;;;;;;21008189;28;20029;-80
2021/07/18 20:10:32;;;;;;;15.73;6.97;;;20.30;99.90;;;;;;20974407;28;20052;-78
2021/07/18 20:20:32;;;;;;;18.13;8.07;;;20.00;99.90;;;;;;20973459;28;20344;-80
2021/07/18 20:30:36;;;;;;;15.00;7.93;;;19.80;99.90;;;;;;20969668;28;20028;-81
2021/07/18 20:40:37;;;;;;;12.80;7.85;;;19.90;99.90;;;;;;20986233;28;20119;-80
2021/07/18 20:50:37;;;;;;;16.13;9.63;;;19.70;99.90;;;;;;20986553;28;20424;-79
2021/07/18 21:00:38;;;;;;;19.23;10.40;;;19.30;99.90;;;;;;20971382;28;20075;-79
2021/07/18 21:10:40;;;;;;;20.73;10.33;;;19.30;99.90;;;;;;20990352;28;20055;-80
2021/07/18 21:20:41;;;;;;;18.90;9.35;;;19.40;99.90;;;;;;20992049;28;20584;-80
2021/07/18 21:30:42;;;;;;;19.77;10.43;;;19.30;99.90;;;;;;20962303;28;20033;-80
2021/07/18 21:40:43;;;;;;;23.03;9.87;;;19.10;99.90;;;;;;20981629;28;20036;-82
2021/07/18 21:50:44;;;;;;;15.47;9.20;;;18.90;99.90;;;;;;20994319;28;20029;-80
2021/07/18 22:00:45;;;;;;;17.67;10.67;;;18.90;99.90;;;;;;20993913;28;20029;-80
2021/07/18 22:10:46;;;;;;;19.27;9.87;;;18.50;99.90;;;;;;21014910;28;20414;-80
2021/07/18 22:20:47;;;;;;;22.97;11.17;;;18.40;99.90;;;;;;20996923;28;20035;-81
2021/07/18 22:30:50;;;;;;;24.70;12.50;;;18.30;99.90;;;;;;21009832;28;20024;-80
2021/07/18 22:40:50;;;;;;;24.27;12.05;;;17.90;99.90;;;;;;20977302;28;20040;-80
2021/07/18 22:50:51;;;;;;;18.87;12.07;;;17.50;99.90;;;;;;21014047;28;20441;-80
2021/07/18 23:00:54;;;;;;;21.47;12.33;;;17.30;99.90;;;;;;21019876;28;20031;-82
2021/07/18 23:10:55;;;;;;;27.00;12.45;;;17.40;99.90;;;;;;21035038;28;20043;-82
2021/07/18 23:20:56;;;;;;;22.17;12.73;;;17.50;99.90;;;;;;21019573;28;20375;-81
2021/07/18 23:30:57;;;;;;;21.77;12.90;;;17.60;99.90;;;;;;21042171;28;20047;-82
2021/07/18 23:40:58;;;;;;;24.13;12.50;;;17.70;99.90;;;;;;21119305;22;20044;-78
2021/07/18 23:50:58;;;;;;;24.60;13.23;;;17.80;99.90;;;;;;21150691;28;20032;-78
